Belize City, Belize

1:46 PM CST on August 27, 2015 (GMT -0600)
Slaughter House Rd, Bze City | | Change Station
CLOSE
Current Station
Personal Weather Station
Location: Belize City,
Elevation: 10 ft
Nearby Weather Stations

Elev 10 ft 17.49 °N, 88.19 °W | Updated 6 seconds ago

Partly Cloudy
Partly Cloudy
87.6 °F
Feels Like 98 °F
N
6.3
Wind Variable Wind from ENE
Gusts 13.0 mph

Today
High -- | Low -- °F
--% Chance of Precip.
Yesterday
High -- | Low -- °F
Precip. -- in
5:37 AM 6:10 PM
Waxing Gibbous, 94% visible
Pressure 29.91 in
Visibility 6.2 miles
Clouds Few 2300 ft
Heat Index 98 °F
Dew Point 76 °F
Humidity 68%
Rainfall 0.00 in
Snow Depth Not available.
UV 16 out of 12
Pollen Not available.
Air Quality Not available.
Flu Activity Not available.
METAR MZBZ 271900Z 06006KT 9999 FEW023 34/25 A2991 Q1013 NOSIG RMK CBTOP-N/SW
Pressure 29.91 in
Visibility 6.2 miles
Clouds Few 2300 ft
Heat Index 98 °F
Dew Point 76 °F
Humidity 68%
Rainfall 0.00 in
Snow Depth Not available.
UV 16 out of 12
Pollen Not available.
Air Quality Not available.
Flu Activity Not available.
METAR MZBZ 271900Z 06006KT 9999 FEW023 34/25 A2991 Q1013 NOSIG RMK CBTOP-N/SW

10-Day Weather Forecast

×

Almanac

Astronomy

Aug. 27, 2015 Rise Set
Actual Time
Civil Twilight
Nautical Twilight
Astronomical Twilight
Moon
Length of Visible Light
Length of Day
Tomorrow will be .
, % of the Moon is Illuminated

Today's Extremes

Country Highs Country Lows

Community

WunderPhotos

Upload Photos

1,850,200 photos uploaded!

WunderBlogs® & News

Nearby

Air Quality

  Air Quality AQ Index Pollutant
Not available.

Snow Depth

Station Depth Elevation

Earthquake Activity

City Distance Mag. Time & Date
Minimum magnitude displayed is 2.5.

Coastal Water Temperatures

Place Temperature

Stations

Nearby Weather Stations

Station Location Temp. Windchill Dew Point Humidity Wind Precip. Elev Updated Type